SBCG/CGR METAR and TAF weather

Enter ICAO airport designator
Station Type Date Time Source
SBCG METAR 2020/07/14 22:00 UTC NOAA

SBCG 142200Z 11006KT 9999 VCSH VCTS SCT045 FEW050CB BKN100 21/19 Q1018


Station Type Date Time Source
SBCG Decoded METAR 2020/07/14 22:00 UTC NOAA

Campo Grande Aeroporto , Brazil (SBCG) 20-28S 054-40W 567M
Jul 14, 2020 - 06:00 PM EDT / 2020.07.14 2200 UTC
Wind: from the ESE (110 degrees) at 7 MPH (6 KT):0
Visibility: greater than 7 mile(s):0
Sky conditions: mostly cloudy
Weather: showers in the vicinity; thunder in the vicinity; Cumulonimbus clouds observed
Temperature: 69 F (21 C)
Dew Point: 66 F (19 C)
Relative Humidity: 88%
Pressure (altimeter): 30.06 in. Hg (1018 hPa)
ob: SBCG 142200Z 11006KT 9999 VCSH VCTS SCT045 FEW050CB BKN100 21/19 Q1018
cycle: 22

Station Type Date Time Source
SBCG TAF 2020/07/14 18:33 UTC NOAA

TAF SBCG 141500Z 1418/1518 12009KT 9999 FEW040 TN18/1504Z TX31/1517Z
BECMG 1419/1421 02005KT CAVOK
RMK PCO

Example: see airport list